Time;durP1;ratioP1;P1;durP2;ratioP2;P2;SDS_P1;SDS_P2;PMS_P1;PMS_P2;Temp;Humidity;BMP_temperature;BMP_pressure;BME280_temperature;BME280_humidity;BME280_pressure;Samples;Min_cycle;Max_cycle;Signal;HPM_P1;HPM_P2
2021/01/27 00:00:14;;;;;;;;;;;;;;;-1.28;74.72;99530.91;1819066;79;20238;-71
2021/01/27 00:02:41;;;;;;;;;;;;;;;-1.31;74.69;99534.94;1819009;79;22058;-71
2021/01/27 00:05:12;;;;;;;;;;;;;;;-1.32;74.68;99544.92;1819817;79;20437;-71
2021/01/27 00:07:40;;;;;;;;;;;;;;;-1.29;74.64;99535.70;1819868;78;20229;-71
2021/01/27 00:10:09;;;;;;;;;;;;;;;-1.28;74.63;99526.19;1818264;79;21552;-71
2021/01/27 00:12:36;;;;;;;;;;;;;;;-1.26;74.66;99526.95;1820355;78;20400;-70
2021/01/27 00:15:16;;;;;;;;;;;;;;;-1.25;74.66;99523.48;1817836;79;21898;-71
2021/01/27 00:17:44;;;;;;;;;;;;;;;-1.25;74.62;99527.37;1819470;78;20366;-71
2021/01/27 00:20:13;;;;;;;;;;;;;;;-1.28;74.66;99530.91;1818764;79;20205;-71
2021/01/27 00:22:41;;;;;;;;;;;;;;;-1.30;74.75;99526.72;1819395;79;21412;-71
2021/01/27 00:25:10;;;;;;;;;;;;;;;-1.34;74.73;99528.61;1820913;78;20214;-71
2021/01/27 00:27:37;;;;;;;;;;;;;;;-1.34;74.71;99520.00;1813689;78;21883;-71
2021/01/27 00:30:12;;;;;;;;;;;;;;;-1.35;74.72;99524.34;1813585;79;20229;-71
2021/01/27 00:32:39;;;;;;;;;;;;;;;-1.34;74.74;99522.13;1799029;79;20227;-70
2021/01/27 00:35:09;;;;;;;;;;;;;;;-1.34;74.76;99514.37;1817512;79;20488;-69
2021/01/27 00:37:37;;;;;;;;;;;;;;;-1.35;74.80;99501.45;1815645;79;20230;-70
2021/01/27 00:40:05;;;;;;;;;;;;;;;-1.35;74.88;99503.63;1815555;78;24337;-70
2021/01/27 00:42:33;;;;;;;;;;;;;;;-1.36;74.87;99507.09;1815430;79;20266;-70
2021/01/27 00:45:01;;;;;;;;;;;;;;;-1.36;74.92;99501.91;1813424;79;20476;-70
2021/01/27 00:47:28;;;;;;;;;;;;;;;-1.37;74.92;99496.34;1814599;79;21491;-70
2021/01/27 00:49:57;;;;;;;;;;;;;;;-1.39;75.01;99492.98;1790628;79;20217;-70
2021/01/27 00:52:24;;;;;;;;;;;;;;;-1.40;75.06;99493.91;1781912;80;22979;-70
2021/01/27 00:54:52;;;;;;;;;;;;;;;-1.40;75.16;99491.31;1802280;79;20245;-70
2021/01/27 00:57:20;;;;;;;;;;;;;;;-1.41;75.21;99488.80;1813919;79;20210;-70
2021/01/27 00:59:48;;;;;;;;;;;;;;;-1.45;75.24;99484.19;1813726;79;20754;-70
2021/01/27 01:02:16;;;;;;;;;;;;;;;-1.48;75.26;99480.45;1815112;79;20218;-71
2021/01/27 01:04:46;;;;;;;;;;;;;;;-1.51;75.33;99476.25;1773479;80;21952;-71
2021/01/27 01:07:13;;;;;;;;;;;;;;;-1.51;75.35;99479.30;1772986;80;20369;-70
2021/01/27 01:09:41;;;;;;;;;;;;;;;-1.53;75.33;99475.48;1728950;82;20294;-70
2021/01/27 01:12:09;;;;;;;;;;;;;;;-1.55;75.33;99464.79;1743143;81;20708;-70
2021/01/27 01:14:37;;;;;;;;;;;;;;;-1.58;75.37;99463.64;1815482;79;20214;-70
2021/01/27 01:17:05;;;;;;;;;;;;;;;-1.59;75.46;99464.55;1825235;77;22041;-70
2021/01/27 01:19:32;;;;;;;;;;;;;;;-1.62;75.51;99458.22;1818288;77;20279;-70
2021/01/27 01:22:00;;;;;;;;;;;;;;;-1.62;75.57;99457.77;1810343;79;20222;-70
2021/01/27 01:24:28;;;;;;;;;;;;;;;-1.62;75.54;99458.22;1801376;79;20712;-70
2021/01/27 01:26:55;;;;;;;;;;;;;;;-1.63;75.55;99446.19;1812265;79;20211;-70
2021/01/27 01:29:23;;;;;;;;;;;;;;;-1.63;75.57;99446.19;1808331;79;24271;-71
2021/01/27 01:31:51;;;;;;;;;;;;;;;-1.64;75.63;99438.88;1807321;79;20273;-70
2021/01/27 01:34:18;;;;;;;;;;;;;;;-1.66;75.68;99441.97;1808501;79;20281;-70
2021/01/27 01:36:46;;;;;;;;;;;;;;;-1.68;75.75;99437.31;1807681;79;20687;-71
2021/01/27 01:39:14;;;;;;;;;;;;;;;-1.68;75.75;99439.06;1810216;79;20209;-71
2021/01/27 01:41:41;;;;;;;;;;;;;;;-1.69;75.85;99430.91;1817502;78;22043;-71
2021/01/27 01:44:09;;;;;;;;;;;;;;;-1.69;75.89;99438.69;1819940;78;20425;-70
2021/01/27 01:46:36;;;;;;;;;;;;;;;-1.69;75.94;99438.23;1819084;78;20226;-70
2021/01/27 01:49:06;;;;;;;;;;;;;;;-1.69;75.97;99429.63;1820674;78;20696;-70
2021/01/27 01:51:39;;;;;;;;;;;;;;;-1.69;76.02;99434.34;1820675;79;20222;-70
2021/01/27 01:54:16;;;;;;;;;;;;;;;-1.69;76.10;99430.91;1820532;78;21319;-70
2021/01/27 01:56:48;;;;;;;;;;;;;;;-1.70;76.17;99421.47;1818052;78;20354;-70
2021/01/27 01:59:15;;;;;;;;;;;;;;;-1.72;76.20;99418.12;1818314;78;20206;-70
2021/01/27 02:01:44;;;;;;;;;;;;;;;-1.74;76.22;99422.05;1817614;78;20988;-70
2021/01/27 02:04:12;;;;;;;;;;;;;;;-1.74;76.24;99429.38;1817962;78;20404;-70
2021/01/27 02:06:39;;;;;;;;;;;;;;;-1.72;76.22;99428.47;1818934;78;21884;-70
2021/01/27 02:09:07;;;;;;;;;;;;;;;-1.73;76.24;99423.75;1819895;78;20333;-71
2021/01/27 02:12:12;;;;;;;;;;;;;;;-1.72;76.25;99425.88;1819437;78;20218;-70
2021/01/27 02:15:09;;;;;;;;;;;;;;;-1.72;76.25;99417.66;1817525;78;20765;-71
2021/01/27 02:17:50;;;;;;;;;;;;;;;-1.72;76.32;99412.94;1818841;78;20210;-70
2021/01/27 02:20:36;;;;;;;;;;;;;;;;;;1818987;78;21888;-70
2021/01/27 02:23:24;;;;;;;;;;;;;;;-1.82;76.43;99391.80;1817962;78;20214;-70
2021/01/27 02:25:55;;;;;;;;;;;;;;;-1.87;76.47;99388.11;1818731;78;20214;-70
2021/01/27 02:28:32;;;;;;;;;;;;;;;-1.86;76.50;99378.59;1813462;78;20852;-70
2021/01/27 02:31:19;;;;;;;;;;;;;;;-1.84;76.49;99382.78;1801517;79;20243;-70
2021/01/27 02:34:10;;;;;;;;;;;;;;;-1.78;76.43;99392.88;1804445;79;22039;-71
2021/01/27 02:36:44;;;;;;;;;;;;;;;-1.70;76.32;99400.77;1805792;79;20218;-70
2021/01/27 02:39:15;;;;;;;;;;;;;;;-1.65;76.20;99389.27;1805046;79;20274;-70
2021/01/27 02:42:04;;;;;;;;;;;;;;;-1.61;76.16;99376.59;1805232;79;20497;-71
2021/01/27 02:44:45;;;;;;;;;;;;;;;-1.59;76.19;99377.81;1804333;79;20234;-71
2021/01/27 02:47:15;;;;;;;;;;;;;;;-1.60;76.19;99376.14;1804864;79;22045;-70
2021/01/27 02:49:58;;;;;;;;;;;;;;;-1.57;76.18;99378.58;1804712;79;20358;-71
2021/01/27 02:52:29;;;;;;;;;;;;;;;-1.54;76.16;99378.00;1805843;79;20246;-70
2021/01/27 02:55:06;;;;;;;;;;;;;;;-1.52;76.18;99376.63;1806193;79;21441;-70
2021/01/27 02:58:02;;;;;;;;;;;;;;;-1.49;76.08;99377.77;1802755;79;20210;-70
2021/01/27 03:00:33;;;;;;;;;;;;;;;-1.43;76.03;99378.80;1805019;79;22069;-70
2021/01/27 03:03:22;;;;;;;;;;;;;;;-1.42;76.00;99383.06;1805615;79;20240;-70
2021/01/27 03:05:53;;;;;;;;;;;;;;;-1.39;75.99;99399.75;1783473;79;20216;-70
2021/01/27 03:08:23;;;;;;;;;;;;;;;-1.36;75.94;99403.94;1796271;79;20481;-72
2021/01/27 03:11:19;;;;;;;;;;;;;;;-1.33;75.85;99409.84;1805228;79;20217;-70
2021/01/27 03:13:46;;;;;;;;;;;;;;;-1.29;75.76;99426.06;1805400;79;22131;-71
2021/01/27 03:16:17;;;;;;;;;;;;;;;-1.23;75.65;99428.38;1806044;79;20418;-70
2021/01/27 03:18:48;;;;;;;;;;;;;;;-1.22;75.60;99419.24;1805524;79;20218;-70
2021/01/27 03:21:18;;;;;;;;;;;;;;;-1.19;75.62;99422.97;1804336;79;20739;-69
2021/01/27 03:23:51;;;;;;;;;;;;;;;-1.17;75.56;99421.14;1804242;79;20218;-70
2021/01/27 03:26:27;;;;;;;;;;;;;;;-1.14;75.55;99418.89;1804718;79;22133;-70
2021/01/27 03:29:00;;;;;;;;;;;;;;;-1.13;75.58;99422.32;1784056;79;20350;-70
2021/01/27 03:31:27;;;;;;;;;;;;;;;-1.14;75.55;99427.96;1815631;79;20214;-70
2021/01/27 03:34:01;;;;;;;;;;;;;;;-1.11;75.49;99432.15;1815299;79;20593;-70
2021/01/27 03:36:32;;;;;;;;;;;;;;;-1.10;75.53;99427.34;1783153;79;20285;-70
2021/01/27 03:38:59;;;;;;;;;;;;;;;-1.10;75.62;99428.64;1804286;79;22791;-70
2021/01/27 03:41:36;;;;;;;;;;;;;;;-1.10;75.69;99432.53;1781761;80;22526;-70
2021/01/27 03:44:12;;;;;;;;;;;;;;;-1.09;75.70;99433.75;1803522;79;20229;-70
2021/01/27 03:46:52;;;;;;;;;;;;;;;-1.10;75.70;99435.96;1815100;79;20601;-70
2021/01/27 03:49:38;;;;;;;;;;;;;;;-1.09;75.73;99433.75;1813407;79;20205;-70
2021/01/27 03:52:20;;;;;;;;;;;;;;;-1.10;75.82;99430.78;1812617;79;22064;-70
2021/01/27 03:55:04;;;;;;;;;;;;;;;-1.13;75.90;99427.50;1780601;79;20217;-70
2021/01/27 03:57:35;;;;;;;;;;;;;;;-1.13;75.90;99431.39;1811889;79;20341;-70
2021/01/27 04:00:08;;;;;;;;;;;;;;;-1.16;75.92;99424.58;1783913;79;20679;-70
2021/01/27 04:02:37;;;;;;;;;;;;;;;-1.18;75.95;99418.17;1772199;80;20261;-70
2021/01/27 04:05:07;;;;;;;;;;;;;;;-1.20;75.97;99416.12;1772049;80;22061;-70
2021/01/27 04:07:34;;;;;;;;;;;;;;;-1.21;76.06;99415.73;1813982;79;20417;-70
2021/01/27 04:10:02;;;;;;;;;;;;;;;-1.21;76.14;99416.19;1813603;79;20213;-70
2021/01/27 04:12:29;;;;;;;;;;;;;;;-1.22;76.14;99415.36;1812758;79;20708;-70
2021/01/27 04:14:56;;;;;;;;;;;;;;;-1.23;76.17;99420.16;1816452;79;20194;-70
2021/01/27 04:17:28;;;;;;;;;;;;;;;-1.22;76.18;99423.13;1814169;79;22052;-69
2021/01/27 04:19:57;;;;;;;;;;;;;;;-1.21;76.20;99422.21;1815368;77;20955;-69
2021/01/27 04:22:24;;;;;;;;;;;;;;;-1.20;76.26;99425.19;1827897;77;20461;-70
2021/01/27 04:24:52;;;;;;;;;;;;;;;-1.19;76.23;99424.73;1816484;77;20533;-70
2021/01/27 04:27:19;;;;;;;;;;;;;;;-1.18;76.18;99424.66;1813717;79;20214;-70
2021/01/27 04:29:47;;;;;;;;;;;;;;;-1.14;76.15;99421.94;1797542;79;22059;-70
2021/01/27 04:32:14;;;;;;;;;;;;;;;-1.13;76.19;99427.50;1806822;79;20230;-70
2021/01/27 04:34:42;;;;;;;;;;;;;;;-1.13;76.16;99427.05;1810930;79;20226;-70
2021/01/27 04:37:10;;;;;;;;;;;;;;;-1.11;76.17;99429.10;1807419;79;20596;-71
2021/01/27 04:39:37;;;;;;;;;;;;;;;-1.11;76.20;99426.97;1798672;79;20649;-69
2021/01/27 04:42:05;;;;;;;;;;;;;;;-1.10;76.18;99417.82;1809837;79;21902;-70
2021/01/27 04:44:33;;;;;;;;;;;;;;;-1.11;76.19;99418.73;1805614;79;21237;-70
2021/01/27 04:47:21;;;;;;;;;;;;;;;-1.12;76.24;99412.34;1776247;80;20399;-71
2021/01/27 04:49:56;;;;;;;;;;;;;;;-1.12;76.26;99418.81;1796565;78;20597;-71
2021/01/27 04:52:51;;;;;;;;;;;;;;;-1.13;76.22;99419.73;1817009;78;20168;-70
2021/01/27 04:55:31;;;;;;;;;;;;;;;-1.12;76.20;99419.66;1816173;79;22072;-71
2021/01/27 04:58:11;;;;;;;;;;;;;;;-1.11;76.12;99417.44;1816610;78;20381;-71
2021/01/27 05:00:48;;;;;;;;;;;;;;;-1.11;76.17;99416.61;1816611;79;20246;-71
2021/01/27 05:03:22;;;;;;;;;;;;;;;-1.11;76.17;99422.63;1814407;79;20691;-71
2021/01/27 05:05:52;;;;;;;;;;;;;;;-1.09;76.03;99426.44;1784066;80;20236;-71
2021/01/27 05:08:23;;;;;;;;;;;;;;;-1.08;76.05;99422.92;1811729;78;22135;-71
2021/01/27 05:10:55;;;;;;;;;;;;;;;-1.08;76.00;99425.52;1799021;79;20278;-71
2021/01/27 05:13:34;;;;;;;;;;;;;;;-1.06;75.99;99427.58;1817805;79;20214;-72
2021/01/27 05:16:04;;;;;;;;;;;;;;;-1.03;75.91;99426.16;1794450;79;22872;-73
2021/01/27 05:18:33;;;;;;;;;;;;;;;-1.01;75.83;99429.51;1816098;78;20285;-72
2021/01/27 05:21:01;;;;;;;;;;;;;;;-1.01;75.72;99417.84;1809895;79;21961;-73
2021/01/27 05:23:28;;;;;;;;;;;;;;;-1.00;75.72;99425.55;1817689;78;20373;-73
2021/01/27 05:26:11;;;;;;;;;;;;;;;-0.99;75.68;99419.91;1813299;78;33619;-75
2021/01/27 05:28:41;;;;;;;;;;;;;;;-1.00;75.74;99410.00;1787432;78;20527;-74
2021/01/27 05:31:09;;;;;;;;;;;;;;;-0.99;75.86;99409.53;1816632;77;20210;-73
2021/01/27 05:33:48;;;;;;;;;;;;;;;-0.98;75.84;99407.33;1817891;78;23120;-70
2021/01/27 05:36:23;;;;;;;;;;;;;;;-0.98;75.85;99395.20;1808542;78;21256;-70
2021/01/27 05:38:51;;;;;;;;;;;;;;;-0.97;75.80;99386.52;1806563;79;20230;-69
2021/01/27 05:41:28;;;;;;;;;;;;;;;-0.98;75.66;99385.30;1817685;79;20529;-69
2021/01/27 05:44:06;;;;;;;;;;;;;;;-0.97;75.54;99392.16;1817867;79;20234;-69
2021/01/27 05:46:35;;;;;;;;;;;;;;;-0.96;75.48;99389.98;1817907;79;22954;-70
2021/01/27 05:49:05;;;;;;;;;;;;;;;-0.95;75.33;99392.95;1817747;79;20351;-70
2021/01/27 05:51:34;;;;;;;;;;;;;;;-0.95;75.29;99398.97;1795538;79;20227;-71
2021/01/27 05:54:22;;;;;;;;;;;;;;;-0.94;75.08;99394.62;1817572;77;20687;-71
2021/01/27 05:56:51;;;;;;;;;;;;;;;-0.94;75.01;99385.55;1817891;79;20226;-69
2021/01/27 05:59:21;;;;;;;;;;;;;;;-0.93;74.97;99385.47;1801189;79;21873;-69
2021/01/27 06:01:49;;;;;;;;;;;;;;;-0.91;74.93;99383.64;1762237;80;20532;-69
2021/01/27 06:04:28;;;;;;;;;;;;;;;-0.89;74.81;99390.04;1784079;80;20514;-69
2021/01/27 06:06:58;;;;;;;;;;;;;;;-0.89;74.60;99390.04;1762829;80;21567;-69
2021/01/27 06:09:42;;;;;;;;;;;;;;;-0.87;74.51;99400.73;1803502;77;20239;-69
2021/01/27 06:12:15;;;;;;;;;;;;;;;-0.86;74.24;99395.09;1816530;79;21825;-70
2021/01/27 06:14:43;;;;;;;;;;;;;;;-0.85;74.13;99397.23;1816140;79;20242;-69
2021/01/27 06:17:28;;;;;;;;;;;;;;;-0.86;73.99;99397.69;1817042;77;20242;-69
2021/01/27 06:20:18;;;;;;;;;;;;;;;-0.83;73.83;99408.36;1812325;79;20696;-70
2021/01/27 06:22:51;;;;;;;;;;;;;;;-0.84;73.77;99410.11;1817572;79;20234;-69
2021/01/27 06:25:40;;;;;;;;;;;;;;;-0.83;73.55;99421.32;1793680;79;22069;-70
2021/01/27 06:28:17;;;;;;;;;;;;;;;-0.84;73.42;99417.05;1809355;79;20494;-70
2021/01/27 06:31:06;;;;;;;;;;;;;;;-0.84;73.36;99425.67;1812447;77;20246;-69
2021/01/27 06:33:39;;;;;;;;;;;;;;;-0.83;73.24;99427.80;1810764;79;20602;-69
2021/01/27 06:36:30;;;;;;;;;;;;;;;-0.82;73.17;99429.02;1810835;79;20237;-69
2021/01/27 06:39:13;;;;;;;;;;;;;;;-0.80;73.11;99423.30;1810402;79;21093;-69
2021/01/27 06:42:04;;;;;;;;;;;;;;;-0.79;73.12;99421.09;1801942;79;20245;-68
2021/01/27 06:44:38;;;;;;;;;;;;;;;-0.77;73.14;99427.06;1764160;79;20266;-71
2021/01/27 06:47:33;;;;;;;;;;;;;;;-0.74;72.99;99424.31;1800572;79;20704;-74
2021/01/27 06:50:09;;;;;;;;;;;;;;;-0.71;73.01;99414.23;1798945;79;20272;-69
2021/01/27 06:52:56;;;;;;;;;;;;;;;-0.68;73.10;99400.66;1797837;78;22123;-75
2021/01/27 06:55:48;;;;;;;;;;;;;;;-0.64;73.08;99399.61;1777548;80;20503;-72
2021/01/27 06:58:34;;;;;;;;;;;;;;;-0.60;73.03;99389.91;1802931;79;20242;-75
2021/01/27 07:01:39;;;;;;;;;;;;;;;-0.58;73.12;99380.30;1817921;79;20937;-75
2021/01/27 07:04:25;;;;;;;;;;;;;;;-0.57;73.14;99380.70;1824436;77;20210;-74
2021/01/27 07:07:03;;;;;;;;;;;;;;;-0.58;73.25;99381.59;1817825;77;22055;-76
2021/01/27 07:09:55;;;;;;;;;;;;;;;-0.61;73.39;99387.78;1801363;77;20219;-70
2021/01/27 07:12:29;;;;;;;;;;;;;;;-0.64;73.51;99384.51;1817319;77;20228;-71
2021/01/27 07:15:06;;;;;;;;;;;;;;;-0.68;73.74;99373.43;1818151;77;20536;-70
2021/01/27 07:18:11;;;;;;;;;;;;;;;-0.69;74.03;99375.64;1799428;77;20250;-75
2021/01/27 07:20:45;;;;;;;;;;;;;;;-0.68;74.25;99370.00;1803050;77;22054;-76
2021/01/27 07:23:20;;;;;;;;;;;;;;;-0.71;74.36;99368.41;1817938;78;20230;-76
2021/01/27 07:26:00;;;;;;;;;;;;;;;-0.72;74.62;99369.32;1817620;79;20501;-78
2021/01/27 07:28:49;;;;;;;;;;;;;;;-0.73;74.77;99365.52;1817589;77;20444;-76
2021/01/27 07:31:41;;;;;;;;;;;;;;;-0.72;74.98;99360.25;1818007;79;20246;-77
2021/01/27 07:34:16;;;;;;;;;;;;;;;-0.68;75.19;99363.05;1824475;77;21864;-78
2021/01/27 07:36:50;;;;;;;;;;;;;;;-0.69;75.29;99358.78;1794462;79;20230;-78
2021/01/27 07:39:33;;;;;;;;;;;;;;;-0.69;75.39;99357.95;1817879;77;20258;-78
2021/01/27 07:42:07;;;;;;;;;;;;;;;-0.67;75.49;99356.98;1817909;77;20686;-77
2021/01/27 07:44:35;;;;;;;;;;;;;;;-0.63;75.56;99354.61;1793588;79;20238;-77
2021/01/27 07:47:16;;;;;;;;;;;;;;;-0.63;75.55;99353.31;1753543;81;22017;-76
2021/01/27 07:49:51;;;;;;;;;;;;;;;-0.61;75.61;99348.88;1829146;77;21283;-77
2021/01/27 07:52:25;;;;;;;;;;;;;;;-0.57;75.60;99353.94;1842694;74;20180;-77
2021/01/27 07:54:56;;;;;;;;;;;;;;;-0.54;75.56;99355.91;1821844;77;20811;-75
2021/01/27 07:57:36;;;;;;;;;;;;;;;-0.54;75.48;99355.91;1818317;78;20257;-74
2021/01/27 08:00:14;;;;;;;;;;;;;;;-0.53;75.43;99349.80;1815075;78;21138;-75
2021/01/27 08:02:52;;;;;;;;;;;;;;;-0.51;75.43;99356.20;1785012;79;20366;-75
2021/01/27 08:05:20;;;;;;;;;;;;;;;-0.52;75.41;99348.04;1775888;78;20226;-76
2021/01/27 08:08:06;;;;;;;;;;;;;;;-0.52;75.49;99351.93;1778535;80;20688;-76
2021/01/27 08:10:35;;;;;;;;;;;;;;;-0.49;75.56;99351.77;1815653;79;20294;-74
2021/01/27 08:13:06;;;;;;;;;;;;;;;-0.51;75.70;99355.73;1814570;79;21949;-74
2021/01/27 08:15:42;;;;;;;;;;;;;;;-0.49;75.80;99349.17;1818594;77;20227;-74
2021/01/27 08:18:18;;;;;;;;;;;;;;;-0.50;75.93;99342.31;1817794;77;20227;-75
2021/01/27 08:20:46;;;;;;;;;;;;;;;-0.47;76.03;99340.88;1798337;78;20530;-72
2021/01/27 08:23:24;;;;;;;;;;;;;;;-0.47;76.12;99340.88;1808393;77;20653;-74
2021/01/27 08:26:03;;;;;;;;;;;;;;;-0.50;76.23;99341.85;1815770;78;21947;-74
2021/01/27 08:28:41;;;;;;;;;;;;;;;-0.48;76.38;99350.84;1815086;79;20358;-71
2021/01/27 08:31:12;;;;;;;;;;;;;;;-0.48;76.51;99341.34;1805845;78;20262;-73
2021/01/27 08:33:46;;;;;;;;;;;;;;;-0.47;76.64;99336.53;1808724;77;20527;-72
2021/01/27 08:36:21;;;;;;;;;;;;;;;-0.51;76.71;99339.34;1811855;79;20273;-72
2021/01/27 08:39:06;;;;;;;;;;;;;;;-0.50;76.81;99346.20;1799630;77;22060;-68
2021/01/27 08:41:53;;;;;;;;;;;;;;;-0.53;77.04;99348.50;1811443;79;20214;-69
2021/01/27 08:44:24;;;;;;;;;;;;;;;-0.54;77.18;99348.58;1794696;79;20234;-69
2021/01/27 08:47:18;;;;;;;;;;;;;;;-0.53;77.36;99345.07;1814285;79;21555;-68
2021/01/27 08:49:49;;;;;;;;;;;;;;;-0.56;77.51;99351.26;1808698;77;20261;-69
2021/01/27 08:52:21;;;;;;;;;;;;;;;-0.58;77.72;99354.36;1768548;80;22058;-69
2021/01/27 08:54:50;;;;;;;;;;;;;;;-0.59;77.89;99340.55;1792285;77;20219;-68
2021/01/27 08:57:35;;;;;;;;;;;;;;;-0.58;78.00;99333.61;1780983;79;20253;-73
2021/01/27 09:00:15;;;;;;;;;;;;;;;-0.56;78.18;99329.21;1814047;79;20524;-73
2021/01/27 09:02:47;;;;;;;;;;;;;;;-0.59;78.35;99327.59;1814683;79;20684;-73
2021/01/27 09:05:25;;;;;;;;;;;;;;;-0.62;78.49;99326.92;1815235;79;21887;-73
2021/01/27 09:07:59;;;;;;;;;;;;;;;-0.69;78.64;99323.78;1814971;77;20373;-72
2021/01/27 09:10:35;;;;;;;;;;;;;;;-0.73;78.78;99322.27;1814825;77;20447;-72
2021/01/27 09:13:20;;;;;;;;;;;;;;;-0.72;78.96;99321.36;1804150;77;20490;-72
2021/01/27 09:15:53;;;;;;;;;;;;;;;-0.70;79.11;99317.38;1735574;82;20259;-73
2021/01/27 09:18:21;;;;;;;;;;;;;;;-0.67;79.24;99309.02;1780201;79;22061;-73
2021/01/27 09:20:51;;;;;;;;;;;;;;;-0.64;79.33;99307.55;1814947;77;20359;-73
2021/01/27 09:23:20;;;;;;;;;;;;;;;-0.59;79.44;99308.59;1783318;78;20265;-72
2021/01/27 09:25:49;;;;;;;;;;;;;;;-0.60;79.47;99303.88;1779811;79;20535;-72
2021/01/27 09:28:24;;;;;;;;;;;;;;;-0.64;79.59;99300.23;1814762;79;20294;-73
2021/01/27 09:30:52;;;;;;;;;;;;;;;-0.68;79.69;99309.06;1806771;79;21872;-70
2021/01/27 09:33:34;;;;;;;;;;;;;;;-0.69;79.88;99304.80;1794240;79;20275;-71
2021/01/27 09:36:04;;;;;;;;;;;;;;;-0.70;79.98;99310.44;1812110;77;20207;-72
2021/01/27 09:38:32;;;;;;;;;;;;;;;-0.68;80.05;99306.47;1805218;77;20535;-76
2021/01/27 09:41:02;;;;;;;;;;;;;;;-0.66;80.10;99305.95;1810267;78;20218;-73
2021/01/27 09:43:39;;;;;;;;;;;;;;;-0.65;80.23;99298.09;1841784;77;22120;-71
2021/01/27 09:46:28;;;;;;;;;;;;;;;-0.64;80.29;99305.42;1819790;77;20213;-72
2021/01/27 09:48:59;;;;;;;;;;;;;;;-0.68;80.32;99302.58;1817738;78;20241;-72
2021/01/27 09:51:27;;;;;;;;;;;;;;;-0.68;80.41;99304.71;1817417;78;20696;-74
2021/01/27 09:53:56;;;;;;;;;;;;;;;-0.64;80.48;99306.72;1807226;77;20646;-71
2021/01/27 09:56:24;;;;;;;;;;;;;;;-0.60;80.59;99303.03;1817733;79;22054;-72
2021/01/27 09:58:52;;;;;;;;;;;;;;;-0.61;80.65;99302.20;1806349;78;20217;-72
2021/01/27 10:01:23;;;;;;;;;;;;;;;-0.61;80.73;99300.06;1794381;79;20281;-72
2021/01/27 10:03:54;;;;;;;;;;;;;;;-0.63;80.78;99294.96;1818290;77;20534;-72
2021/01/27 10:06:42;;;;;;;;;;;;;;;-0.64;80.92;99290.70;1814171;79;20209;-73
2021/01/27 10:09:19;;;;;;;;;;;;;;;-0.63;80.92;99298.02;1787487;77;21319;-71
2021/01/27 10:11:52;;;;;;;;;;;;;;;-0.62;80.99;99299.23;1816849;77;20361;-71
2021/01/27 10:14:24;;;;;;;;;;;;;;;-0.57;81.05;99293.83;1802503;79;20230;-71
2021/01/27 10:16:58;;;;;;;;;;;;;;;-0.55;81.07;99297.17;1808269;77;21592;-72
2021/01/27 10:19:44;;;;;;;;;;;;;;;-0.53;81.13;99294.03;1805901;77;20420;-72
2021/01/27 10:22:12;;;;;;;;;;;;;;;-0.52;81.17;99300.06;1815136;77;21888;-72
2021/01/27 10:24:48;;;;;;;;;;;;;;;-0.54;81.20;99296.71;1818022;77;20219;-72
2021/01/27 10:27:20;;;;;;;;;;;;;;;-0.54;81.25;99295.41;1789616;77;20267;-72
2021/01/27 10:29:48;;;;;;;;;;;;;;;-0.59;81.31;99291.28;1809323;77;20706;-72
2021/01/27 10:32:19;;;;;;;;;;;;;;;-0.62;81.32;99288.86;1811719;78;20273;-71
2021/01/27 10:34:49;;;;;;;;;;;;;;;-0.58;81.41;99283.05;1811627;78;22058;-73
2021/01/27 10:37:33;;;;;;;;;;;;;;;-0.60;81.39;99280.53;1811596;78;20214;-70
2021/01/27 10:40:16;;;;;;;;;;;;;;;-0.58;81.48;99281.74;1812483;77;20210;-73
2021/01/27 10:42:47;;;;;;;;;;;;;;;-0.51;81.56;99282.28;1805157;77;20701;-71
2021/01/27 10:45:24;;;;;;;;;;;;;;;-0.48;81.55;99275.20;1791049;78;20201;-72
2021/01/27 10:48:01;;;;;;;;;;;;;;;-0.45;81.55;99274.19;1812602;77;22013;-72
2021/01/27 10:50:29;;;;;;;;;;;;;;;-0.47;81.52;99266.50;1814459;77;20361;-72
2021/01/27 10:52:59;;;;;;;;;;;;;;;-0.47;81.54;99261.77;1812030;77;20233;-72
2021/01/27 10:55:32;;;;;;;;;;;;;;;-0.49;81.53;99260.98;1810859;77;21537;-75
2021/01/27 10:58:12;;;;;;;;;;;;;;;-0.45;81.52;99253.44;1811430;77;20258;-69
2021/01/27 11:00:40;;;;;;;;;;;;;;;-0.42;81.51;99254.56;1809538;77;22077;-67
2021/01/27 11:03:08;;;;;;;;;;;;;;;-0.40;81.52;99257.91;1812163;77;20348;-68
2021/01/27 11:05:37;;;;;;;;;;;;;;;-0.40;81.50;99257.91;1811433;79;20206;-69
2021/01/27 11:08:05;;;;;;;;;;;;;;;-0.45;81.48;99250.84;1813456;77;20698;-73
2021/01/27 11:10:33;;;;;;;;;;;;;;;-0.45;81.51;99252.14;1817029;77;20205;-71
2021/01/27 11:13:01;;;;;;;;;;;;;;;-0.48;81.50;99249.26;1826088;77;21879;-72
2021/01/27 11:15:28;;;;;;;;;;;;;;;-0.50;81.54;99247.18;1836025;78;20273;-72
2021/01/27 11:17:56;;;;;;;;;;;;;;;-0.51;81.56;99245.97;1817077;77;20229;-71
2021/01/27 11:20:25;;;;;;;;;;;;;;;-0.49;81.61;99240.23;1778109;80;20375;-71
2021/01/27 11:22:54;;;;;;;;;;;;;;;-0.46;81.65;99240.09;1815581;77;20246;-74
2021/01/27 11:25:24;;;;;;;;;;;;;;;-0.45;81.64;99243.06;1845311;77;22021;-73
2021/01/27 11:27:51;;;;;;;;;;;;;;;-0.48;81.59;99238.02;1847169;77;20197;-71
2021/01/27 11:30:21;;;;;;;;;;;;;;;-0.49;81.70;99229.86;1843548;77;20555;-70
2021/01/27 11:32:50;;;;;;;;;;;;;;;-0.54;81.67;99221.03;1811536;79;20593;-74
2021/01/27 11:35:18;;;;;;;;;;;;;;;-0.57;81.75;99225.56;1800247;79;20219;-74
2021/01/27 11:37:46;;;;;;;;;;;;;;;-0.65;81.78;99219.47;1786888;80;22955;-75
2021/01/27 11:40:15;;;;;;;;;;;;;;;-0.65;81.85;99217.71;1786672;80;20386;-73
2021/01/27 11:42:43;;;;;;;;;;;;;;;-0.62;81.91;99217.54;1785848;80;20259;-72
2021/01/27 11:45:12;;;;;;;;;;;;;;;-0.59;81.99;99213.48;1810425;79;20538;-73
2021/01/27 11:47:40;;;;;;;;;;;;;;;-0.59;82.02;99214.78;1811490;79;20216;-69
2021/01/27 11:50:10;;;;;;;;;;;;;;;-0.61;82.02;99211.89;1811470;78;22109;-69
2021/01/27 11:52:38;;;;;;;;;;;;;;;-0.61;82.12;99211.44;1796602;79;20362;-69
2021/01/27 11:55:07;;;;;;;;;;;;;;;-0.56;82.18;99205.19;1786888;80;20220;-68
2021/01/27 11:57:35;;;;;;;;;;;;;;;-0.55;82.20;99210.29;1786909;80;21550;-67
2021/01/27 12:00:05;;;;;;;;;;;;;;;-0.47;82.27;99206.00;1786935;80;20715;-68
2021/01/27 12:02:34;;;;;;;;;;;;;;;-0.44;82.24;99202.77;1786870;80;21891;-69
2021/01/27 12:05:02;;;;;;;;;;;;;;;-0.43;82.22;99194.53;1786815;80;20221;-69
2021/01/27 12:07:30;;;;;;;;;;;;;;;-0.43;82.22;99194.53;1765034;80;20212;-69
2021/01/27 12:09:57;;;;;;;;;;;;;;;-0.44;82.20;99196.28;1787948;79;20642;-75
2021/01/27 12:12:25;;;;;;;;;;;;;;;-0.41;82.25;99190.92;1786836;80;20221;-73
2021/01/27 12:14:52;;;;;;;;;;;;;;;-0.36;82.21;99195.89;1786906;80;24384;-73
2021/01/27 12:17:20;;;;;;;;;;;;;;;-0.37;82.19;99193.75;1786151;79;21136;-72
2021/01/27 12:19:47;;;;;;;;;;;;;;;-0.38;82.14;99197.73;1786816;80;20220;-71
2021/01/27 12:22:16;;;;;;;;;;;;;;;-0.41;82.13;99186.20;1786713;80;20494;-72
2021/01/27 12:24:44;;;;;;;;;;;;;;;-0.43;82.14;99188.88;1786866;80;20212;-71
2021/01/27 12:27:11;;;;;;;;;;;;;;;-0.44;82.11;99188.97;1787991;79;21889;-71
2021/01/27 12:29:40;;;;;;;;;;;;;;;-0.46;82.07;99181.73;1786748;80;20381;-70
2021/01/27 12:32:08;;;;;;;;;;;;;;;-0.52;82.05;99188.07;1780060;80;20209;-70
2021/01/27 12:34:36;;;;;;;;;;;;;;;-0.56;82.11;99193.52;1779025;80;20712;-71
2021/01/27 12:37:03;;;;;;;;;;;;;;;-0.57;82.12;99190.55;1779070;80;20467;-74
2021/01/27 12:39:30;;;;;;;;;;;;;;;-0.63;82.09;99202.06;1779114;79;21962;-73
2021/01/27 12:41:58;;;;;;;;;;;;;;;-0.68;82.13;99200.16;1779039;79;22644;-73
2021/01/27 12:44:27;;;;;;;;;;;;;;;-0.71;82.19;99197.27;1778600;80;20233;-73
2021/01/27 12:46:54;;;;;;;;;;;;;;;-0.70;82.23;99196.35;1779034;80;20506;-75
2021/01/27 12:49:22;;;;;;;;;;;;;;;-0.67;82.26;99193.63;1779078;80;20209;-72
2021/01/27 12:51:49;;;;;;;;;;;;;;;-0.65;82.31;99189.19;1779222;80;21916;-68
2021/01/27 12:54:17;;;;;;;;;;;;;;;-0.66;82.32;99191.41;1779108;80;20217;-70
2021/01/27 12:56:44;;;;;;;;;;;;;;;-0.68;82.33;99190.63;1779087;80;20213;-74
2021/01/27 12:59:11;;;;;;;;;;;;;;;-0.69;82.39;99194.59;1780619;79;20536;-72
2021/01/27 13:01:43;;;;;;;;;;;;;;;-0.70;82.45;99188.58;1779054;80;20216;-74
2021/01/27 13:04:11;;;;;;;;;;;;;;;-0.73;82.46;99189.20;1779114;80;21892;-74
2021/01/27 13:06:38;;;;;;;;;;;;;;;-0.75;82.53;99181.52;1779060;80;20224;-73
2021/01/27 13:09:06;;;;;;;;;;;;;;;-0.77;82.53;99172.12;1779158;80;20411;-74
2021/01/27 13:11:33;;;;;;;;;;;;;;;-0.78;82.57;99169.98;1779151;80;20547;-75
2021/01/27 13:14:01;;;;;;;;;;;;;;;-0.78;82.59;99170.45;1779212;79;20225;-75
2021/01/27 13:16:28;;;;;;;;;;;;;;;-0.80;82.62;99165.34;1780228;79;22201;-73
2021/01/27 13:18:56;;;;;;;;;;;;;;;-0.81;82.67;99163.67;1778999;80;20232;-74